Time;durP1;ratioP1;P1;durP2;ratioP2;P2;SDS_P1;SDS_P2;PMS_P1;PMS_P2;Temp;Humidity;BMP_temperature;BMP_pressure;BME280_temperature;BME280_humidity;BME280_pressure;Samples;Min_cycle;Max_cycle;Signal;HPM_P1;HPM_P2
2022/08/06 00:02:12;;;;;;;5.80;3.20;;;29.30;86.50;;;;;;5034389;28;20028;-75
2022/08/06 00:04:38;;;;;;;7.35;3.85;;;29.30;84.70;;;;;;5034346;28;20033;-73
2022/08/06 00:07:03;;;;;;;7.20;3.35;;;29.30;86.60;;;;;;5034291;28;20029;-74
2022/08/06 00:09:32;;;;;;;7.57;3.85;;;29.20;86.30;;;;;;5034215;28;20101;-75
2022/08/06 00:12:03;;;;;;;4.82;3.03;;;29.20;87.60;;;;;;5034368;28;20105;-74
2022/08/06 00:14:30;;;;;;;6.93;3.38;;;29.10;87.80;;;;;;5034131;28;20026;-76
2022/08/06 00:16:56;;;;;;;7.22;3.42;;;29.10;84.80;;;;;;5034106;28;20014;-75
2022/08/06 00:19:22;;;;;;;10.57;3.67;;;29.10;86.50;;;;;;5033045;28;20547;-75
2022/08/06 00:21:48;;;;;;;8.05;3.80;;;29.10;88.00;;;;;;5034270;28;20053;-77
2022/08/06 00:24:14;;;;;;;6.72;3.65;;;29.10;87.20;;;;;;5034031;28;20037;-77
2022/08/06 00:26:40;;;;;;;7.05;3.78;;;29.10;88.00;;;;;;5033792;28;20044;-75
2022/08/06 00:29:07;;;;;;;6.93;3.70;;;29.10;88.10;;;;;;5033841;28;20045;-77
2022/08/06 00:31:32;;;;;;;9.65;3.33;;;29.10;85.60;;;;;;5033849;28;20080;-73
2022/08/06 00:34:01;;;;;;;5.32;2.80;;;29.10;87.10;;;;;;5033863;28;20025;-74
2022/08/06 00:36:28;;;;;;;6.07;3.35;;;29.10;85.20;;;;;;5033709;28;20049;-75
2022/08/06 00:38:54;;;;;;;6.40;3.10;;;29.10;85.30;;;;;;5033869;28;20029;-75
2022/08/06 00:41:21;;;;;;;5.47;3.03;;;29.10;83.40;;;;;;5033151;28;20049;-78
2022/08/06 00:43:47;;;;;;;8.68;2.90;;;29.10;83.70;;;;;;5033710;28;20072;-74
2022/08/06 00:46:13;;;;;;;6.88;2.90;;;29.10;84.30;;;;;;5033579;28;20026;-74
2022/08/06 00:48:39;;;;;;;8.38;3.60;;;29.10;84.30;;;;;;5033581;28;20037;-74
2022/08/06 00:51:05;;;;;;;7.60;3.67;;;29.10;85.40;;;;;;5032216;28;20025;-73
2022/08/06 00:53:30;;;;;;;5.70;3.38;;;29.10;85.30;;;;;;5033519;28;20041;-74
2022/08/06 00:55:56;;;;;;;5.75;3.45;;;29.10;86.00;;;;;;5033701;28;20030;-73
2022/08/06 00:58:22;;;;;;;5.80;3.08;;;29.10;86.40;;;;;;5034436;28;20052;-77
2022/08/06 01:00:47;;;;;;;7.57;3.88;;;29.10;87.30;;;;;;5033777;28;20490;-77
2022/08/06 01:03:17;;;;;;;9.27;3.60;;;29.10;88.00;;;;;;5033539;28;20394;-75
2022/08/06 01:05:43;;;;;;;6.03;2.70;;;29.00;88.30;;;;;;5033581;28;20391;-75
2022/08/06 01:08:10;;;;;;;5.22;3.40;;;29.00;85.60;;;;;;5033276;28;20033;-76
2022/08/06 01:10:36;;;;;;;7.75;4.00;;;29.00;86.50;;;;;;5033224;28;20021;-74
2022/08/06 01:13:02;;;;;;;8.05;3.58;;;29.00;87.90;;;;;;5033126;28;20029;-73
2022/08/06 01:15:28;;;;;;;6.30;3.33;;;29.00;88.20;;;;;;5032868;28;20014;-74
2022/08/06 01:18:03;;;;;;;4.28;3.00;;;29.00;88.10;;;;;;5033122;28;20099;-74
2022/08/06 01:20:41;;;;;;;8.93;3.55;;;28.90;88.70;;;;;;5032947;28;20609;-73
2022/08/06 01:23:43;;;;;;;7.85;3.75;;;28.90;88.10;;;;;;5031547;28;20036;-73
2022/08/06 01:26:29;;;;;;;7.85;3.00;;;28.90;89.50;;;;;;5031529;28;20037;-74
2022/08/06 01:29:01;;;;;;;6.13;3.00;;;28.90;87.10;;;;;;5033069;28;20029;-73
2022/08/06 01:31:38;;;;;;;7.07;3.10;;;28.90;86.70;;;;;;5032904;28;20021;-74
2022/08/06 01:34:09;;;;;;;8.35;3.20;;;28.90;86.10;;;;;;5032939;28;20064;-74
2022/08/06 01:36:44;;;;;;;6.43;3.05;;;28.90;87.10;;;;;;5031474;28;20025;-73
2022/08/06 01:39:11;;;;;;;8.45;3.30;;;28.90;87.40;;;;;;5032696;28;20081;-73
2022/08/06 01:41:43;;;;;;;6.10;3.20;;;28.90;87.90;;;;;;5032468;28;20566;-73
2022/08/06 01:44:15;;;;;;;6.05;3.22;;;28.90;87.50;;;;;;5032674;28;20029;-74
2022/08/06 01:46:46;;;;;;;7.13;3.10;;;28.90;88.10;;;;;;5032665;28;20033;-74
2022/08/06 01:49:17;;;;;;;6.95;3.58;;;28.80;86.90;;;;;;5031413;28;20107;-74
2022/08/06 01:51:45;;;;;;;6.65;3.10;;;28.80;87.80;;;;;;5032711;28;20026;-74
2022/08/06 01:54:12;;;;;;;7.57;3.13;;;28.80;87.90;;;;;;5033806;28;20029;-73
2022/08/06 01:56:43;;;;;;;8.27;2.95;;;28.80;87.30;;;;;;5035372;28;20118;-74
2022/08/06 01:59:12;;;;;;;7.45;3.20;;;28.80;86.50;;;;;;5036676;28;20155;-74
2022/08/06 02:01:39;;;;;;;4.40;3.00;;;28.80;86.90;;;;;;5036709;28;20033;-74
2022/08/06 02:04:06;;;;;;;6.43;2.92;;;28.80;87.30;;;;;;5036816;28;20035;-75
2022/08/06 02:06:41;;;;;;;6.80;2.80;;;28.80;87.80;;;;;;5036616;28;20029;-74
2022/08/06 02:09:13;;;;;;;6.72;3.70;;;28.70;86.60;;;;;;5036617;28;20025;-75
2022/08/06 02:11:40;;;;;;;7.68;3.25;;;28.70;87.20;;;;;;5036533;28;20048;-74
2022/08/06 02:14:07;;;;;;;6.75;3.38;;;28.70;87.00;;;;;;5036588;28;20041;-74
2022/08/06 02:16:40;;;;;;;8.07;3.58;;;28.70;87.60;;;;;;5035078;28;20080;-74
2022/08/06 02:19:07;;;;;;;5.70;3.75;;;28.70;88.00;;;;;;5036371;28;20025;-74
2022/08/06 02:21:34;;;;;;;7.45;3.53;;;28.70;88.30;;;;;;5036204;28;20017;-73
2022/08/06 02:24:04;;;;;;;6.95;3.45;;;28.70;89.00;;;;;;5036517;28;20029;-75
2022/08/06 02:26:31;;;;;;;7.90;3.45;;;28.70;89.00;;;;;;5036010;28;20041;-75
2022/08/06 02:28:59;;;;;;;7.30;3.80;;;28.60;89.70;;;;;;5036077;28;20112;-76
2022/08/06 02:31:25;;;;;;;6.50;3.17;;;28.60;90.00;;;;;;5036190;28;20030;-79
2022/08/06 02:33:51;;;;;;;8.05;3.50;;;28.60;88.80;;;;;;5036283;28;20025;-74
2022/08/06 02:36:24;;;;;;;7.28;3.25;;;28.60;89.10;;;;;;5035873;28;20105;-75
2022/08/06 02:39:14;;;;;;;5.97;3.30;;;28.60;89.10;;;;;;5035876;28;20026;-73
2022/08/06 02:41:45;;;;;;;5.95;3.10;;;28.60;88.70;;;;;;5035213;28;20522;-74
2022/08/06 02:44:14;;;;;;;6.65;2.95;;;28.60;89.10;;;;;;5035766;28;20030;-80
2022/08/06 02:46:46;;;;;;;5.25;3.08;;;28.60;89.00;;;;;;5035553;28;20029;-75
2022/08/06 02:49:21;;;;;;;5.35;2.85;;;28.70;89.00;;;;;;5035736;28;20530;-74
2022/08/06 02:52:02;;;;;;;7.47;3.30;;;28.60;88.30;;;;;;5035667;28;20501;-73
2022/08/06 02:54:48;;;;;;;8.80;3.20;;;28.60;88.50;;;;;;5034212;28;20028;-75
2022/08/06 02:57:21;;;;;;;6.15;3.55;;;28.60;88.80;;;;;;5035535;28;20425;-73
2022/08/06 02:59:50;;;;;;;9.57;3.78;;;28.60;88.80;;;;;;5035497;28;20053;-74
2022/08/06 03:02:19;;;;;;;9.45;3.58;;;28.50;88.80;;;;;;5036093;28;20036;-76
2022/08/06 03:04:48;;;;;;;7.43;3.75;;;28.60;88.90;;;;;;5034263;28;20055;-73
2022/08/06 03:07:15;;;;;;;8.25;3.97;;;28.50;88.60;;;;;;5035633;28;20609;-75
2022/08/06 03:09:45;;;;;;;8.25;4.03;;;28.40;88.50;;;;;;5035826;28;20030;-74
2022/08/06 03:12:13;;;;;;;5.78;3.83;;;28.30;88.80;;;;;;5035407;28;20048;-74
2022/08/06 03:14:40;;;;;;;9.00;4.38;;;28.30;89.10;;;;;;5035304;28;20021;-77
2022/08/06 03:17:07;;;;;;;9.95;4.40;;;28.20;89.10;;;;;;5035146;28;20022;-75
2022/08/06 03:19:34;;;;;;;8.80;4.20;;;28.20;89.30;;;;;;5035051;28;20029;-75
2022/08/06 03:22:02;;;;;;;8.25;3.97;;;28.20;88.40;;;;;;5034971;28;20024;-75
2022/08/06 03:24:29;;;;;;;10.02;4.50;;;28.20;88.20;;;;;;5033726;28;20030;-77
2022/08/06 03:26:58;;;;;;;9.77;4.07;;;28.20;88.20;;;;;;5034777;28;20382;-75
2022/08/06 03:29:26;;;;;;;9.43;4.68;;;28.10;87.70;;;;;;5035100;28;20029;-77
2022/08/06 03:31:52;;;;;;;9.73;4.47;;;28.10;87.60;;;;;;5034849;28;20021;-76
2022/08/06 03:34:19;;;;;;;6.70;4.40;;;28.00;88.00;;;;;;5034890;28;20434;-76
2022/08/06 03:36:45;;;;;;;8.27;5.18;;;28.00;88.00;;;;;;5034770;28;20421;-76
2022/08/06 03:39:12;;;;;;;10.65;4.70;;;28.00;88.30;;;;;;5035053;28;20025;-76
2022/08/06 03:41:40;;;;;;;8.43;4.63;;;27.90;88.00;;;;;;5034795;28;20045;-75
2022/08/06 03:44:07;;;;;;;10.98;4.97;;;27.90;88.10;;;;;;5035105;28;20387;-78
2022/08/06 03:46:45;;;;;;;10.32;5.13;;;27.90;88.10;;;;;;5034441;28;20025;-76
2022/08/06 03:49:18;;;;;;;8.23;5.13;;;27.90;88.90;;;;;;5034691;28;20030;-75
2022/08/06 03:51:46;;;;;;;10.57;4.35;;;27.90;88.10;;;;;;5035409;28;20382;-72
2022/08/06 03:54:14;;;;;;;8.90;4.45;;;27.80;88.30;;;;;;5033615;28;20033;-73
2022/08/06 03:56:43;;;;;;;9.27;4.90;;;27.80;88.20;;;;;;5047695;23;20054;-72
2022/08/06 03:59:11;;;;;;;11.65;4.90;;;27.80;88.40;;;;;;5034456;28;20128;-71
2022/08/06 04:01:41;;;;;;;8.00;5.10;;;27.80;88.40;;;;;;5034446;28;20025;-71
2022/08/06 04:04:08;;;;;;;9.82;4.63;;;27.80;88.30;;;;;;5033194;28;20022;-72
2022/08/06 04:06:34;;;;;;;9.52;4.47;;;27.90;88.00;;;;;;5034128;28;20370;-72
2022/08/06 04:09:01;;;;;;;8.57;4.30;;;27.90;87.20;;;;;;5034329;28;20029;-73
2022/08/06 04:11:27;;;;;;;8.50;4.30;;;27.90;87.20;;;;;;5034133;28;20048;-72
2022/08/06 04:13:54;;;;;;;13.60;4.78;;;28.00;87.00;;;;;;5033995;28;20033;-72
2022/08/06 04:16:21;;;;;;;9.30;4.47;;;28.00;86.40;;;;;;5033052;28;20091;-71
2022/08/06 04:18:48;;;;;;;9.40;4.57;;;28.00;86.00;;;;;;5034067;28;20022;-71
2022/08/06 04:21:22;;;;;;;9.63;4.95;;;27.90;85.80;;;;;;5034243;28;20022;-72
2022/08/06 04:23:49;;;;;;;7.28;4.38;;;27.80;86.40;;;;;;5033881;28;20025;-71
2022/08/06 04:26:19;;;;;;;9.10;4.45;;;27.80;86.40;;;;;;5033725;28;20033;-71
2022/08/06 04:28:48;;;;;;;10.02;4.07;;;27.70;86.30;;;;;;5033880;28;20071;-72
2022/08/06 04:31:15;;;;;;;8.85;3.92;;;27.80;85.90;;;;;;5033764;28;20401;-71
2022/08/06 04:33:42;;;;;;;11.27;4.18;;;27.80;85.20;;;;;;5033956;28;20030;-71
2022/08/06 04:36:08;;;;;;;5.38;3.42;;;27.80;84.90;;;;;;5033591;28;20021;-71
2022/08/06 04:38:34;;;;;;;10.27;3.92;;;27.90;84.40;;;;;;5033665;28;20494;-70
2022/08/06 04:41:02;;;;;;;8.68;4.20;;;27.90;83.80;;;;;;5033564;28;20107;-71
2022/08/06 04:43:29;;;;;;;6.68;3.88;;;27.90;83.30;;;;;;5033542;28;20371;-70
2022/08/06 04:45:56;;;;;;;7.00;4.13;;;27.90;82.80;;;;;;5033384;28;20117;-71
2022/08/06 04:48:23;;;;;;;8.38;4.25;;;27.90;82.60;;;;;;5033593;28;20449;-71
2022/08/06 04:50:49;;;;;;;8.45;4.03;;;27.90;82.40;;;;;;5033424;28;20091;-70
2022/08/06 04:53:16;;;;;;;5.25;3.40;;;27.90;81.80;;;;;;5033461;28;20033;-72
2022/08/06 04:55:44;;;;;;;9.05;3.33;;;27.80;81.70;;;;;;5033091;28;20478;-71
2022/08/06 04:58:12;;;;;;;8.30;3.90;;;27.80;81.30;;;;;;5033399;28;20395;-72
2022/08/06 05:00:45;;;;;;;11.20;5.30;;;27.90;81.20;;;;;;5033382;28;20029;-72
2022/08/06 05:03:11;;;;;;;;;;;27.90;80.80;;;;;;5033790;28;20479;-71
2022/08/06 05:06:14;;;;;;;9.10;4.90;;;28.00;80.50;;;;;;5032362;28;20017;-72
2022/08/06 05:08:42;;;;;;;7.88;3.97;;;28.00;79.00;;;;;;5034243;28;20401;-71
2022/08/06 05:11:18;;;;;;;8.25;3.70;;;28.00;79.60;;;;;;5033752;28;20021;-72
2022/08/06 05:13:46;;;;;;;9.07;3.75;;;28.00;78.60;;;;;;5033453;28;20040;-71
2022/08/06 05:16:14;;;;;;;6.68;3.85;;;28.00;79.30;;;;;;5033253;28;20059;-71
2022/08/06 05:18:45;;;;;;;11.75;4.18;;;28.10;79.00;;;;;;5033371;28;20029;-70
2022/08/06 05:21:14;;;;;;;11.82;3.88;;;28.10;78.90;;;;;;5033028;28;20018;-71
2022/08/06 05:23:53;;;;;;;9.43;4.15;;;28.20;78.60;;;;;;5033531;28;20530;-70
2022/08/06 05:26:21;;;;;;;7.70;3.72;;;28.30;77.90;;;;;;5032912;28;20049;-71
2022/08/06 05:28:46;;;;;;;8.95;3.72;;;28.50;77.70;;;;;;5032838;28;20438;-71
2022/08/06 05:31:12;;;;;;;8.27;3.78;;;28.70;76.50;;;;;;5033086;28;20030;-71
2022/08/06 05:33:39;;;;;;;7.82;4.13;;;28.90;75.80;;;;;;5033068;28;20017;-71
2022/08/06 05:36:10;;;;;;;7.07;4.10;;;29.20;74.40;;;;;;5032769;28;20033;-72
2022/08/06 05:38:38;;;;;;;9.40;3.40;;;29.40;73.60;;;;;;5032871;28;20036;-72
2022/08/06 05:41:06;;;;;;;9.18;3.83;;;29.70;72.50;;;;;;5033014;28;20204;-72
2022/08/06 05:43:32;;;;;;;8.63;3.72;;;30.00;71.50;;;;;;5032848;28;20031;-71
2022/08/06 05:46:01;;;;;;;10.93;4.25;;;30.20;70.50;;;;;;5032651;28;20108;-72
2022/08/06 05:48:32;;;;;;;12.43;4.03;;;30.40;69.60;;;;;;5032745;28;20110;-72
2022/08/06 05:51:08;;;;;;;7.28;3.30;;;30.50;69.00;;;;;;5033000;28;20040;-72
2022/08/06 05:53:42;;;;;;;7.95;3.70;;;30.70;68.50;;;;;;5032941;28;20049;-72
2022/08/06 05:56:13;;;;;;;7.07;3.80;;;30.70;67.80;;;;;;5032451;28;20108;-72
2022/08/06 05:58:42;;;;;;;7.65;4.15;;;30.80;67.60;;;;;;5032938;28;20034;-72
2022/08/06 06:01:09;;;;;;;7.05;3.60;;;30.90;67.60;;;;;;5033417;28;20026;-72
2022/08/06 06:03:38;;;;;;;11.02;3.58;;;31.10;66.70;;;;;;5033614;28;20053;-73
2022/08/06 06:06:04;;;;;;;8.30;3.38;;;31.20;67.40;;;;;;5033102;28;20026;-72
2022/08/06 06:08:30;;;;;;;7.05;3.60;;;31.20;67.70;;;;;;5033071;28;20041;-72
2022/08/06 06:10:56;;;;;;;7.20;3.75;;;31.20;68.10;;;;;;5032988;28;20014;-72
2022/08/06 06:13:24;;;;;;;8.75;3.40;;;31.10;68.30;;;;;;5032917;28;20033;-72
2022/08/06 06:16:24;;;;;;;8.95;3.92;;;31.00;68.90;;;;;;5032720;28;20051;-72
2022/08/06 06:18:59;;;;;;;9.23;4.60;;;31.00;69.10;;;;;;5031502;28;20486;-72
2022/08/06 06:21:24;;;;;;;6.70;5.18;;;31.20;69.10;;;;;;5032959;28;20348;-73
2022/08/06 06:24:01;;;;;;;9.80;5.25;;;31.50;69.30;;;;;;5032838;28;20021;-73
2022/08/06 06:26:54;;;;;;;9.55;5.60;;;31.60;69.20;;;;;;5033889;28;20491;-74
2022/08/06 06:29:41;;;;;;;11.50;6.13;;;31.80;68.80;;;;;;5036335;28;20425;-72
2022/08/06 06:32:09;;;;;;;7.65;4.82;;;32.10;68.40;;;;;;5032485;28;20109;-71
2022/08/06 06:34:48;;;;;;;12.70;5.75;;;32.20;68.10;;;;;;5032590;28;20509;-72
2022/08/06 06:37:24;;;;;;;10.68;6.55;;;32.40;67.70;;;;;;5032590;28;20026;-72
2022/08/06 06:39:53;;;;;;;9.27;4.50;;;32.50;68.20;;;;;;5033881;28;20497;-72
2022/08/06 06:42:34;;;;;;;9.13;5.32;;;32.60;67.20;;;;;;5036570;28;20104;-71
2022/08/06 06:45:24;;;;;;;12.18;5.55;;;32.70;67.20;;;;;;5035871;28;20475;-72
2022/08/06 06:47:59;;;;;;;8.55;5.15;;;32.80;66.10;;;;;;5036037;28;20040;-71
2022/08/06 06:50:38;;;;;;;11.30;6.70;;;33.00;65.80;;;;;;5035823;28;20075;-72
2022/08/06 06:53:05;;;;;;;10.15;6.68;;;33.00;66.60;;;;;;5036093;28;20047;-72
2022/08/06 06:55:43;;;;;;;10.00;5.20;;;33.00;66.80;;;;;;5035720;28;20132;-73
2022/08/06 06:58:19;;;;;;;10.27;6.10;;;33.00;66.40;;;;;;5035602;28;20036;-73
2022/08/06 07:00:46;;;;;;;10.32;6.00;;;33.10;66.60;;;;;;5035527;28;20079;-72
2022/08/06 07:03:16;;;;;;;8.98;4.75;;;33.00;66.50;;;;;;5034143;28;20030;-73
2022/08/06 07:05:46;;;;;;;10.60;4.93;;;33.00;66.00;;;;;;5035285;28;20032;-73
2022/08/06 07:08:14;;;;;;;7.75;4.00;;;33.00;66.10;;;;;;5035547;28;20025;-70
2022/08/06 07:10:42;;;;;;;9.60;4.15;;;33.20;65.40;;;;;;5035408;28;20109;-71
2022/08/06 07:13:10;;;;;;;9.77;4.07;;;33.30;64.40;;;;;;5035555;28;20029;-73
2022/08/06 07:15:36;;;;;;;12.18;6.82;;;33.50;64.00;;;;;;5035195;28;20394;-73
2022/08/06 07:18:05;;;;;;;9.80;5.13;;;33.60;63.20;;;;;;5035276;28;20477;-74
2022/08/06 07:20:31;;;;;;;12.30;3.72;;;33.60;62.80;;;;;;5035487;28;20104;-73
2022/08/06 07:23:00;;;;;;;9.02;4.05;;;33.70;62.40;;;;;;5035275;28;20025;-74
2022/08/06 07:25:27;;;;;;;8.52;4.15;;;33.70;62.00;;;;;;5035334;28;20313;-72
2022/08/06 07:27:52;;;;;;;7.90;3.70;;;33.70;61.70;;;;;;5035317;28;20548;-73
2022/08/06 07:30:20;;;;;;;7.47;3.67;;;33.80;61.60;;;;;;5035280;28;20021;-73
2022/08/06 07:32:46;;;;;;;6.63;3.95;;;33.80;61.10;;;;;;5033902;28;20057;-74
2022/08/06 07:35:13;;;;;;;7.38;4.03;;;33.80;61.00;;;;;;5034939;28;20121;-71
2022/08/06 07:38:00;;;;;;;8.60;3.90;;;33.70;61.20;;;;;;5035064;28;20017;-74
2022/08/06 07:40:32;;;;;;;10.25;4.28;;;33.70;61.10;;;;;;5035024;28;20102;-73
2022/08/06 07:43:28;;;;;;;11.57;3.60;;;33.80;60.90;;;;;;5033818;28;20021;-71
2022/08/06 07:45:57;;;;;;;7.50;3.40;;;33.80;59.30;;;;;;5033548;28;20033;-71
2022/08/06 07:48:32;;;;;;;10.68;4.45;;;33.80;60.40;;;;;;5033701;28;20026;-71
2022/08/06 07:50:59;;;;;;;15.15;5.00;;;33.90;59.70;;;;;;5034567;28;20083;-74
2022/08/06 07:53:26;;;;;;;12.05;4.60;;;34.10;59.50;;;;;;5035214;28;20097;-72
2022/08/06 07:55:52;;;;;;;8.80;4.22;;;34.00;59.10;;;;;;5034809;28;20087;-76
2022/08/06 07:58:19;;;;;;;13.32;3.83;;;34.00;59.10;;;;;;5035119;28;20036;-74
2022/08/06 08:00:47;;;;;;;9.88;4.63;;;34.10;59.00;;;;;;5030758;28;20532;-76
2022/08/06 08:06:21;;;;;;;8.27;3.90;;;34.10;58.80;;;;;;5034783;28;20032;-78
2022/08/06 08:08:50;;;;;;;9.73;3.42;;;34.10;58.80;;;;;;5018172;28;20411;-77
2022/08/06 08:11:18;;;;;;;8.63;3.55;;;34.10;57.90;;;;;;5015044;28;20054;-74
2022/08/06 08:13:43;;;;;;;10.90;3.90;;;34.00;57.70;;;;;;5015143;28;20025;-72
2022/08/06 08:16:13;;;;;;;7.03;3.08;;;34.10;57.60;;;;;;5014834;28;20080;-72
2022/08/06 08:18:40;;;;;;;13.40;5.60;;;33.90;57.20;;;;;;5014676;28;20104;-74
2022/08/06 08:21:07;;;;;;;13.68;3.97;;;33.80;57.20;;;;;;5015050;28;20089;-78
2022/08/06 08:23:34;;;;;;;18.13;5.53;;;33.70;57.50;;;;;;5014834;28;20026;-71
2022/08/06 08:26:02;;;;;;;11.00;3.60;;;33.70;57.30;;;;;;5014469;28;20037;-75
2022/08/06 08:28:30;;;;;;;7.32;2.67;;;33.60;57.10;;;;;;5014228;28;20080;-70
2022/08/06 08:31:01;;;;;;;9.95;2.97;;;33.50;56.10;;;;;;5014678;28;20034;-69
2022/08/06 08:33:28;;;;;;;5.95;2.90;;;33.40;55.80;;;;;;5014481;28;20385;-71
2022/08/06 08:35:54;;;;;;;7.53;3.67;;;33.20;56.40;;;;;;5014555;28;20030;-74
2022/08/06 08:38:20;;;;;;;11.18;4.00;;;33.10;56.40;;;;;;5014626;28;20507;-76
2022/08/06 08:40:48;;;;;;;8.85;3.28;;;33.00;56.40;;;;;;5014216;28;20105;-71
2022/08/06 08:43:21;;;;;;;7.85;3.20;;;33.00;57.00;;;;;;5013888;28;20033;-68
2022/08/06 08:45:49;;;;;;;;;;;33.00;57.00;;;;;;5014632;28;20040;-75
2022/08/06 08:48:16;;;;;;;21.50;8.45;;;33.00;56.80;;;;;;5017731;28;19925;-71
2022/08/06 08:50:43;;;;;;;11.55;3.80;;;33.00;56.30;;;;;;5020952;28;20049;-72
2022/08/06 08:53:14;;;;;;;8.18;3.22;;;33.10;56.50;;;;;;5015265;28;20028;-71
2022/08/06 08:55:40;;;;;;;6.53;3.25;;;33.00;56.20;;;;;;5014081;28;20085;-73
2022/08/06 08:58:06;;;;;;;9.73;3.20;;;33.10;56.10;;;;;;5014143;28;20495;-74
2022/08/06 09:00:33;;;;;;;8.30;3.47;;;33.10;55.10;;;;;;5014054;28;20502;-73
2022/08/06 09:02:59;;;;;;;9.48;3.90;;;33.00;55.20;;;;;;5013463;28;20507;-74
2022/08/06 09:05:25;;;;;;;9.00;2.75;;;33.00;54.50;;;;;;5013809;28;20034;-70
2022/08/06 09:07:51;;;;;;;5.32;2.50;;;33.00;53.50;;;;;;5013590;28;20041;-69
2022/08/06 09:10:17;;;;;;;5.50;2.40;;;33.00;52.40;;;;;;5020331;28;20022;-71
2022/08/06 09:12:44;;;;;;;10.25;3.42;;;33.00;51.60;;;;;;5035547;28;20386;-74
2022/08/06 09:15:09;;;;;;;6.90;2.78;;;33.00;51.00;;;;;;5033847;28;20426;-73
2022/08/06 09:17:36;;;;;;;16.35;6.20;;;33.00;50.90;;;;;;5033418;28;20021;-77
2022/08/06 09:20:03;;;;;;;12.70;5.15;;;33.10;50.60;;;;;;5033190;28;20053;-70
2022/08/06 09:22:29;;;;;;;11.50;5.03;;;33.10;50.40;;;;;;5032773;28;20021;-71
2022/08/06 09:24:55;;;;;;;8.70;4.18;;;33.10;50.40;;;;;;5033455;28;20044;-71
2022/08/06 09:27:20;;;;;;;19.88;6.13;;;33.20;50.60;;;;;;5039248;28;20391;-71
2022/08/06 09:29:51;;;;;;;16.20;6.50;;;33.30;50.70;;;;;;5035789;28;20026;-74
2022/08/06 09:32:37;;;;;;;9.75;4.00;;;33.30;49.90;;;;;;5032976;28;20029;-73
2022/08/06 09:35:23;;;;;;;6.13;3.00;;;33.30;50.20;;;;;;5033229;28;20029;-68
2022/08/06 09:37:58;;;;;;;7.45;3.17;;;33.30;50.80;;;;;;5032636;28;20026;-73
2022/08/06 09:40:24;;;;;;;9.88;2.58;;;33.30;50.90;;;;;;5032816;28;20063;-72
2022/08/06 09:42:52;;;;;;;7.53;4.05;;;33.40;50.70;;;;;;5032932;28;20018;-73
2022/08/06 09:45:19;;;;;;;8.48;2.55;;;33.40;50.30;;;;;;5032596;28;20103;-74
2022/08/06 09:47:47;;;;;;;8.85;3.20;;;33.40;50.60;;;;;;5032545;28;20042;-72
2022/08/06 09:50:13;;;;;;;12.48;3.95;;;33.40;51.00;;;;;;5032955;28;20390;-72
2022/08/06 09:52:40;;;;;;;7.63;2.97;;;33.40;51.30;;;;;;5032666;28;20115;-73
2022/08/06 09:55:06;;;;;;;11.48;3.15;;;33.50;51.90;;;;;;5032733;28;20084;-72
2022/08/06 09:57:44;;;;;;;5.93;2.97;;;33.50;50.40;;;;;;5032493;28;20095;-71
2022/08/06 10:00:10;;;;;;;6.07;3.65;;;33.60;50.40;;;;;;5032423;28;20029;-73
2022/08/06 10:02:38;;;;;;;9.27;2.70;;;33.50;50.20;;;;;;5032136;28;20145;-72
2022/08/06 10:05:11;;;;;;;10.60;4.75;;;33.60;51.30;;;;;;5032684;28;20037;-73
2022/08/06 10:07:37;;;;;;;7.38;3.20;;;33.70;49.50;;;;;;5032787;28;20034;-70
2022/08/06 10:10:05;;;;;;;9.70;4.45;;;33.70;49.40;;;;;;5032448;28;20379;-74
2022/08/06 10:12:32;;;;;;;5.45;2.70;;;33.70;49.80;;;;;;5031222;28;20039;-72
2022/08/06 10:14:58;;;;;;;6.50;2.58;;;33.70;50.30;;;;;;5034211;28;20055;-71
2022/08/06 10:17:25;;;;;;;8.30;3.35;;;33.70;49.90;;;;;;5036386;28;20029;-74
2022/08/06 10:20:10;;;;;;;7.15;2.60;;;33.70;50.60;;;;;;5036582;28;20026;-70
2022/08/06 10:22:50;;;;;;;6.43;2.58;;;33.70;50.60;;;;;;5036413;28;20641;-72
2022/08/06 10:25:16;;;;;;;6.75;3.22;;;33.80;50.00;;;;;;5036342;28;20033;-70
2022/08/06 10:27:43;;;;;;;5.85;2.53;;;33.80;50.20;;;;;;5036148;28;20056;-68
2022/08/06 10:30:10;;;;;;;6.18;2.72;;;33.90;49.40;;;;;;5036308;28;20026;-73
2022/08/06 10:32:53;;;;;;;5.97;2.55;;;33.90;48.80;;;;;;5036457;28;20072;-71
2022/08/06 10:35:22;;;;;;;8.68;3.63;;;34.00;48.90;;;;;;5036195;28;20032;-69
2022/08/06 10:37:53;;;;;;;9.32;4.88;;;34.00;48.50;;;;;;5034789;28;20036;-70
2022/08/06 10:40:21;;;;;;;8.00;2.97;;;34.00;47.80;;;;;;5036011;28;20034;-69
2022/08/06 10:42:47;;;;;;;5.40;2.58;;;34.10;48.50;;;;;;5036011;28;20057;-73
2022/08/06 10:45:13;;;;;;;13.73;4.60;;;34.20;48.70;;;;;;5036002;28;20017;-71
2022/08/06 10:47:44;;;;;;;12.38;4.40;;;34.20;49.70;;;;;;5036001;28;20128;-74
2022/08/06 10:50:12;;;;;;;5.80;2.75;;;34.30;50.90;;;;;;5036166;28;20868;-79
2022/08/06 10:52:39;;;;;;;10.45;3.38;;;34.40;51.40;;;;;;5034699;28;20029;-75
2022/08/06 10:55:05;;;;;;;9.88;2.88;;;34.40;50.90;;;;;;5035865;28;20547;-70
2022/08/06 10:57:32;;;;;;;7.05;3.20;;;34.50;50.40;;;;;;5035659;28;20049;-74
2022/08/06 11:00:01;;;;;;;6.38;2.70;;;34.50;50.40;;;;;;5035522;28;20036;-73
2022/08/06 11:02:34;;;;;;;15.77;3.28;;;34.60;49.80;;;;;;5034383;28;20426;-78
2022/08/06 11:05:04;;;;;;;11.32;4.20;;;34.60;50.10;;;;;;5036105;28;20028;-72
2022/08/06 11:07:55;;;;;;;8.75;3.40;;;34.60;49.70;;;;;;5035617;28;20086;-77
2022/08/06 11:10:41;;;;;;;13.35;4.90;;;34.70;49.40;;;;;;5035979;28;20109;-73
2022/08/06 11:13:17;;;;;;;9.90;3.10;;;34.70;49.10;;;;;;5035847;28;20120;-76
2022/08/06 11:15:43;;;;;;;10.98;4.93;;;34.70;49.50;;;;;;5035581;28;20501;-74
2022/08/06 11:18:11;;;;;;;9.63;3.50;;;34.80;49.20;;;;;;5037689;28;20494;-76
2022/08/06 11:20:40;;;;;;;7.80;2.47;;;34.80;49.30;;;;;;5048227;28;20045;-76
2022/08/06 11:23:12;;;;;;;6.18;2.53;;;34.80;49.00;;;;;;5040991;28;20021;-70
2022/08/06 11:25:46;;;;;;;7.82;2.30;;;34.90;49.30;;;;;;5036595;28;20021;-76
2022/08/06 11:28:16;;;;;;;4.65;2.00;;;34.90;48.60;;;;;;5036376;28;20044;-74
2022/08/06 11:30:48;;;;;;;12.90;3.53;;;34.90;49.00;;;;;;5035916;28;20025;-76
2022/08/06 11:33:33;;;;;;;14.75;5.60;;;35.00;48.40;;;;;;5036064;28;20148;-76
2022/08/06 11:36:09;;;;;;;15.70;5.20;;;35.00;48.50;;;;;;5035813;28;20033;-77
2022/08/06 11:38:47;;;;;;;6.45;2.40;;;35.10;48.40;;;;;;5035868;28;20360;-77
2022/08/06 11:41:30;;;;;;;8.10;2.22;;;35.20;48.10;;;;;;5035912;28;20469;-74
2022/08/06 11:43:56;;;;;;;15.57;3.55;;;35.30;47.70;;;;;;5035498;28;20029;-77
2022/08/06 11:46:22;;;;;;;8.57;2.60;;;35.40;47.20;;;;;;5033985;28;20513;-75
2022/08/06 11:49:10;;;;;;;6.18;2.42;;;35.50;47.30;;;;;;5035129;28;20061;-74
2022/08/06 11:51:47;;;;;;;9.48;3.33;;;35.60;46.80;;;;;;5035768;28;20176;-73
2022/08/06 11:54:28;;;;;;;5.95;2.50;;;35.80;45.90;;;;;;5037326;28;20049;-70
2022/08/06 11:57:06;;;;;;;12.23;3.10;;;35.80;45.60;;;;;;5039472;28;20160;-72
2022/08/06 11:59:37;;;;;;;7.18;2.25;;;35.70;45.30;;;;;;5037746;28;20033;-73
2022/08/06 12:02:08;;;;;;;4.63;1.73;;;35.80;45.10;;;;;;5035951;28;20022;-71
2022/08/06 12:04:40;;;;;;;5.65;2.38;;;35.80;44.10;;;;;;5067360;28;20034;-74
2022/08/06 12:07:28;;;;;;;10.77;3.70;;;35.80;44.20;;;;;;5037218;28;20483;-72
2022/08/06 12:10:05;;;;;;;9.48;4.03;;;35.90;44.00;;;;;;5037547;28;20032;-74
2022/08/06 12:12:37;;;;;;;4.88;2.20;;;35.90;42.80;;;;;;5035659;28;20368;-81
2022/08/06 12:15:15;;;;;;;3.28;1.80;;;36.00;42.50;;;;;;5034194;28;20025;-74
2022/08/06 12:17:53;;;;;;;7.97;2.88;;;36.00;42.40;;;;;;5035418;28;20042;-77
2022/08/06 12:20:44;;;;;;;6.75;2.47;;;36.10;42.00;;;;;;5035018;28;20048;-83
2022/08/06 12:23:13;;;;;;;11.00;2.70;;;36.00;42.00;;;;;;5034530;28;20474;-77
2022/08/06 12:25:45;;;;;;;8.15;2.42;;;36.10;41.90;;;;;;5034127;28;20036;-79
2022/08/06 12:28:13;;;;;;;7.13;2.28;;;36.10;41.70;;;;;;5034378;28;20040;-75
2022/08/06 12:30:43;;;;;;;6.50;1.83;;;36.10;41.70;;;;;;5033729;28;20029;-75
2022/08/06 12:33:10;;;;;;;5.43;2.20;;;36.20;41.80;;;;;;5033787;28;20065;-72
2022/08/06 12:35:47;;;;;;;7.70;2.25;;;36.20;41.50;;;;;;5033677;28;20033;-73
2022/08/06 12:38:13;;;;;;;7.60;2.03;;;36.20;40.90;;;;;;5032761;28;20557;-76
2022/08/06 12:40:39;;;;;;;8.32;2.05;;;36.30;40.80;;;;;;5033864;28;20025;-74
2022/08/06 12:43:04;;;;;;;5.70;2.05;;;36.30;40.10;;;;;;5033284;28;20490;-75
2022/08/06 12:45:32;;;;;;;9.80;2.60;;;36.40;40.30;;;;;;5033536;28;20513;-75
2022/08/06 12:48:03;;;;;;;10.65;2.45;;;36.40;39.70;;;;;;5033484;28;20059;-73
2022/08/06 12:50:31;;;;;;;7.97;2.38;;;36.50;39.80;;;;;;5032543;28;20037;-75
2022/08/06 12:53:13;;;;;;;3.80;1.42;;;36.50;39.10;;;;;;5065613;28;20108;-73
2022/08/06 12:55:47;;;;;;;5.95;2.17;;;36.50;39.10;;;;;;5034164;28;20044;-75
2022/08/06 12:58:20;;;;;;;4.88;1.73;;;36.60;39.50;;;;;;5034012;28;20030;-71
2022/08/06 13:00:50;;;;;;;7.70;2.00;;;36.60;39.40;;;;;;5033888;28;20422;-76
2022/08/06 13:03:18;;;;;;;6.93;2.20;;;36.60;38.90;;;;;;5033762;28;20100;-74
2022/08/06 13:05:45;;;;;;;9.45;2.10;;;36.60;38.50;;;;;;5033573;28;20112;-74